createdAt,value
2022-09-27T00:02:08.349Z,18.10
2022-09-27T00:04:39.283Z,19.05
2022-09-27T00:07:11.681Z,20.77
2022-09-27T00:09:42.682Z,19.70
2022-09-27T00:12:13.521Z,19.23
2022-09-27T00:14:44.400Z,19.32
2022-09-27T00:17:15.238Z,17.45
2022-09-27T00:19:46.153Z,19.10
2022-09-27T00:22:17.078Z,18.35
2022-09-27T00:24:47.878Z,19.05
2022-09-27T00:27:19.187Z,19.70
2022-09-27T00:29:50.772Z,18.82
2022-09-27T00:32:21.990Z,21.62
2022-09-27T00:34:52.892Z,31.57
2022-09-27T00:37:23.824Z,33.23
2022-09-27T00:39:54.838Z,25.50
2022-09-27T00:42:25.604Z,32.10
2022-09-27T00:44:58.779Z,26.12
2022-09-27T00:47:31.885Z,25.82
2022-09-27T00:50:05.182Z,25.55
2022-09-27T00:52:38.345Z,25.55
2022-09-27T00:55:11.780Z,26.35
2022-09-27T00:57:43.926Z,25.60
2022-09-27T01:00:16.520Z,23.87
2022-09-27T01:02:49.951Z,24.45
2022-09-27T01:05:23.151Z,22.75
2022-09-27T01:07:56.095Z,23.85
2022-09-27T01:10:28.475Z,21.68
2022-09-27T01:13:01.368Z,22.73
2022-09-27T01:15:35.334Z,28.00
2022-09-27T01:18:08.554Z,25.80
2022-09-27T01:20:42.824Z,24.43
2022-09-27T01:23:15.938Z,23.30
2022-09-27T01:25:49.090Z,22.20
2022-09-27T01:28:22.342Z,23.98
2022-09-27T01:30:54.029Z,22.17
2022-09-27T01:33:27.313Z,21.27
2022-09-27T01:36:00.660Z,20.50
2022-09-27T01:38:34.085Z,19.85
2022-09-27T01:41:07.534Z,21.12
2022-09-27T01:43:40.789Z,19.57
2022-09-27T01:46:14.106Z,19.35
2022-09-27T01:48:47.406Z,20.02
2022-09-27T01:51:20.553Z,19.55
2022-09-27T01:53:54.158Z,19.48
2022-09-27T01:56:27.265Z,19.60
2022-09-27T01:59:00.510Z,18.50
2022-09-27T02:01:34.338Z,18.15
2022-09-27T02:04:06.804Z,18.15
2022-09-27T02:06:39.897Z,18.23
2022-09-27T02:09:13.124Z,18.52
2022-09-27T02:11:46.412Z,18.77
2022-09-27T02:14:18.038Z,18.48
2022-09-27T02:16:52.294Z,18.75
2022-09-27T02:19:24.888Z,18.35
2022-09-27T02:21:58.557Z,19.80
2022-09-27T02:24:31.826Z,19.02
2022-09-27T02:27:05.268Z,17.35
2022-09-27T02:29:38.690Z,16.82
2022-09-27T02:32:09.886Z,16.70
2022-09-27T02:34:42.994Z,17.32
2022-09-27T02:37:14.472Z,16.75
2022-09-27T02:39:45.470Z,19.55
2022-09-27T02:42:16.471Z,17.32
2022-09-27T02:44:47.574Z,18.30
2022-09-27T02:47:20.691Z,19.25
2022-09-27T02:49:54.047Z,17.73
2022-09-27T02:52:28.670Z,17.65
2022-09-27T02:55:00.311Z,17.20
2022-09-27T02:57:33.684Z,19.12
2022-09-27T03:00:08.272Z,17.20
2022-09-27T03:02:40.025Z,18.27
2022-09-27T03:05:13.176Z,19.17
2022-09-27T03:07:44.168Z,17.37
2022-09-27T03:10:17.488Z,16.75
2022-09-27T03:12:48.586Z,16.85
2022-09-27T03:15:19.785Z,16.48
2022-09-27T03:17:50.643Z,16.90
2022-09-27T03:20:21.895Z,17.40
2022-09-27T03:22:52.502Z,17.67
2022-09-27T03:25:23.177Z,18.45
2022-09-27T03:27:53.892Z,17.85
2022-09-27T03:33:15.819Z,17.05
2022-09-27T03:35:46.578Z,17.07
2022-09-27T03:38:17.522Z,15.50
2022-09-27T03:40:48.406Z,15.78
2022-09-27T03:43:20.449Z,16.90
2022-09-27T03:45:51.610Z,16.10
2022-09-27T03:48:27.155Z,15.20
2022-09-27T03:50:54.665Z,16.70
2022-09-27T03:53:44.761Z,16.57
2022-09-27T03:56:15.761Z,16.90
2022-09-27T03:58:46.525Z,18.77
2022-09-27T04:01:17.358Z,19.32
2022-09-27T04:03:48.330Z,19.80
2022-09-27T04:06:23.428Z,19.20
2022-09-27T04:08:54.037Z,17.32
2022-09-27T04:11:25.134Z,18.05
2022-09-27T04:13:57.399Z,18.42
2022-09-27T04:16:28.710Z,18.70
2022-09-27T04:18:59.584Z,18.92
2022-09-27T04:21:30.756Z,17.95
2022-09-27T04:24:01.571Z,19.75
2022-09-27T04:26:32.349Z,18.82
2022-09-27T04:29:03.237Z,21.30
2022-09-27T04:31:34.169Z,20.02
2022-09-27T04:34:04.981Z,19.85
2022-09-27T04:36:36.261Z,19.27
2022-09-27T04:39:09.227Z,19.35
2022-09-27T04:41:41.269Z,19.62
2022-09-27T04:44:12.523Z,19.98
2022-09-27T04:46:43.505Z,20.72
2022-09-27T04:49:14.144Z,21.37
2022-09-27T04:51:45.017Z,20.25
2022-09-27T04:54:15.823Z,20.75
2022-09-27T04:56:46.604Z,20.92
2022-09-27T04:59:17.548Z,20.45
2022-09-27T05:01:48.610Z,19.95
2022-09-27T05:04:19.624Z,19.55
2022-09-27T05:06:53.707Z,19.40
2022-09-27T05:09:23.043Z,18.12
2022-09-27T05:11:53.903Z,18.05
2022-09-27T05:16:56.863Z,18.75
2022-09-27T05:19:27.640Z,18.90
2022-09-27T05:21:58.409Z,19.30
2022-09-27T05:24:29.518Z,19.95
2022-09-27T05:27:00.599Z,19.55
2022-09-27T05:29:31.550Z,18.02
2022-09-27T05:32:02.420Z,18.40
2022-09-27T05:34:33.811Z,17.48
2022-09-27T05:37:04.703Z,17.75
2022-09-27T05:39:35.608Z,17.10
2022-09-27T05:42:07.852Z,17.85
2022-09-27T05:44:40.298Z,17.23
2022-09-27T05:47:11.206Z,16.70
2022-09-27T05:49:42.171Z,16.10
2022-09-27T05:52:16.017Z,17.25
2022-09-27T05:54:45.228Z,18.05
2022-09-27T05:57:16.438Z,17.27
2022-09-27T05:59:48.216Z,17.10
2022-09-27T06:02:19.566Z,17.62
2022-09-27T06:04:50.205Z,17.42
2022-09-27T06:07:21.764Z,16.80
2022-09-27T06:09:52.771Z,17.35
2022-09-27T06:12:24.530Z,16.70
2022-09-27T06:14:55.378Z,17.20
2022-09-27T06:17:25.983Z,17.15
2022-09-27T06:19:56.563Z,15.95
2022-09-27T06:22:28.597Z,16.65
2022-09-27T06:24:59.152Z,16.20
2022-09-27T06:27:29.849Z,15.25
2022-09-27T06:30:00.876Z,15.98
2022-09-27T06:32:31.580Z,17.10
2022-09-27T06:35:02.160Z,15.90
2022-09-27T06:37:32.860Z,15.78
2022-09-27T06:40:04.957Z,16.85
2022-09-27T06:42:35.655Z,15.95
2022-09-27T06:45:07.885Z,16.67
2022-09-27T06:47:39.683Z,15.03
2022-09-27T06:50:11.002Z,15.90
2022-09-27T06:52:43.239Z,15.40
2022-09-27T06:55:13.960Z,15.25
2022-09-27T06:57:46.014Z,16.07
2022-09-27T07:00:18.203Z,15.90
2022-09-27T07:02:49.371Z,15.75
2022-09-27T07:05:21.420Z,15.58
2022-09-27T07:07:53.379Z,15.80
2022-09-27T07:10:24.181Z,15.35
2022-09-27T07:12:55.790Z,15.18
2022-09-27T07:15:26.394Z,14.87
2022-09-27T07:18:00.410Z,14.23
2022-09-27T07:20:32.293Z,14.65
2022-09-27T07:23:02.762Z,15.08
2022-09-27T07:25:34.671Z,14.75
2022-09-27T07:28:07.635Z,15.70
2022-09-27T07:30:39.434Z,16.32
2022-09-27T07:33:10.604Z,16.00
2022-09-27T07:35:42.854Z,16.30
2022-09-27T07:38:15.160Z,14.55
2022-09-27T07:40:46.499Z,14.53
2022-09-27T07:43:17.617Z,14.75
2022-09-27T07:45:49.074Z,15.40
2022-09-27T07:48:20.332Z,14.05
2022-09-27T07:50:51.022Z,14.50
2022-09-27T07:53:22.004Z,14.75
2022-09-27T07:55:54.703Z,14.68
2022-09-27T07:58:25.392Z,15.03
2022-09-27T08:00:57.298Z,14.13
2022-09-27T08:03:28.420Z,15.10
2022-09-27T08:05:59.045Z,14.23
2022-09-27T08:08:30.351Z,14.73
2022-09-27T08:11:01.149Z,14.43
2022-09-27T08:13:31.947Z,15.48
2022-09-27T08:16:04.356Z,14.83
2022-09-27T08:18:35.024Z,15.58
2022-09-27T08:21:06.245Z,14.00
2022-09-27T08:23:38.140Z,15.10
2022-09-27T08:26:09.183Z,15.05
2022-09-27T08:28:39.863Z,14.93
2022-09-27T08:31:10.644Z,15.55
2022-09-27T08:33:41.863Z,15.63
2022-09-27T08:36:14.961Z,15.13
2022-09-27T08:38:45.853Z,15.00
2022-09-27T08:41:19.634Z,14.83
2022-09-27T08:43:51.132Z,14.38
2022-09-27T08:46:24.158Z,14.60
2022-09-27T08:48:57.215Z,14.90
2022-09-27T08:51:31.041Z,15.65
2022-09-27T08:54:04.168Z,14.70
2022-09-27T08:56:35.420Z,14.10
2022-09-27T08:59:08.775Z,14.68
2022-09-27T09:01:40.155Z,15.00
2022-09-27T09:04:13.311Z,14.05
2022-09-27T09:06:46.465Z,15.35
2022-09-27T09:09:18.480Z,15.30
2022-09-27T09:11:52.874Z,14.95
2022-09-27T09:14:25.994Z,14.50
2022-09-27T09:16:58.040Z,14.83
2022-09-27T09:19:29.481Z,15.43
2022-09-27T09:22:02.604Z,15.00
2022-09-27T09:24:34.241Z,14.47
2022-09-27T09:27:07.756Z,15.35
2022-09-27T09:49:54.207Z,15.63
2022-09-27T09:58:19.900Z,15.08
2022-09-27T10:00:56.086Z,16.23
2022-09-27T10:03:29.097Z,16.87
2022-09-27T10:05:59.687Z,16.20
2022-09-27T10:08:30.293Z,17.25
2022-09-27T10:11:01.011Z,15.78
2022-09-27T10:13:34.056Z,16.05
2022-09-27T10:16:06.035Z,15.25
2022-09-27T10:18:39.567Z,14.73
2022-09-27T10:21:12.797Z,16.50
2022-09-27T10:23:46.151Z,17.40
2022-09-27T10:26:19.532Z,15.23
2022-09-27T10:28:51.732Z,16.82
2022-09-27T10:31:24.582Z,16.12
2022-09-27T10:33:57.682Z,17.12
2022-09-27T10:36:30.735Z,16.62
2022-09-27T10:39:05.520Z,16.65
2022-09-27T10:41:42.595Z,17.15
2022-09-27T10:44:15.769Z,17.27
2022-09-27T10:46:49.080Z,16.75
2022-09-27T10:49:26.414Z,17.92
2022-09-27T10:51:59.409Z,18.10
2022-09-27T10:54:32.403Z,18.05
2022-09-27T10:57:06.889Z,17.87
2022-09-27T10:59:39.955Z,18.50
2022-09-27T11:02:16.348Z,19.98
2022-09-27T11:04:51.349Z,19.30
2022-09-27T11:07:26.651Z,19.87
2022-09-27T11:10:01.452Z,19.00
2022-09-27T11:12:33.272Z,19.23
2022-09-27T11:15:07.857Z,19.73
2022-09-27T11:17:41.025Z,18.70
2022-09-27T11:20:14.251Z,20.30
2022-09-27T11:22:47.304Z,18.80
2022-09-27T11:25:18.941Z,18.35
2022-09-27T11:27:52.067Z,17.80
2022-09-27T11:30:26.810Z,19.17
2022-09-27T11:33:02.488Z,18.57
2022-09-27T11:35:36.434Z,18.27
2022-09-27T11:41:14.997Z,19.10
2022-09-27T11:43:48.196Z,17.70
2022-09-27T11:46:26.654Z,18.55
2022-09-27T11:48:54.233Z,18.50
2022-09-27T11:51:25.762Z,18.85
2022-09-27T11:53:57.421Z,18.40
2022-09-27T11:56:33.178Z,18.27
2022-09-27T11:59:09.992Z,19.83
2022-09-27T12:01:51.539Z,18.98
2022-09-27T12:04:20.280Z,18.62
2022-09-27T12:06:53.428Z,18.85
2022-09-27T12:09:26.886Z,19.02
2022-09-27T12:12:00.083Z,19.07
2022-09-27T12:14:31.594Z,20.43
2022-09-27T12:17:04.606Z,21.12
2022-09-27T12:19:37.794Z,18.98
2022-09-27T12:22:11.367Z,19.52
2022-09-27T12:24:42.594Z,19.35
2022-09-27T12:27:16.643Z,21.17
2022-09-27T12:29:49.376Z,19.82
2022-09-27T12:32:23.066Z,19.40
2022-09-27T12:34:56.897Z,20.35
2022-09-27T12:37:29.908Z,20.62
2022-09-27T12:40:02.932Z,21.52
2022-09-27T12:42:36.038Z,19.90
2022-09-27T12:45:07.296Z,21.27
2022-09-27T12:53:31.941Z,22.82
2022-09-27T12:58:58.994Z,23.07
2022-09-27T13:01:37.490Z,23.42
2022-09-27T13:04:10.822Z,23.92
2022-09-27T13:06:44.021Z,21.70
2022-09-27T13:09:27.246Z,22.62
2022-09-27T13:12:01.729Z,23.80
2022-09-27T13:14:34.887Z,22.62
2022-09-27T13:17:06.714Z,23.65
2022-09-27T13:19:38.116Z,25.00
2022-09-27T13:22:11.429Z,25.50
2022-09-27T13:24:41.820Z,24.25
2022-09-27T13:27:16.061Z,26.30
2022-09-27T13:29:46.854Z,25.48
2022-09-27T13:32:20.406Z,27.62
2022-09-27T13:34:54.541Z,28.65
2022-09-27T13:37:27.577Z,30.20
2022-09-27T13:40:00.585Z,29.60
2022-09-27T13:42:34.233Z,34.25
2022-09-27T13:45:07.325Z,33.48
2022-09-27T13:47:41.822Z,33.10
2022-09-27T13:50:17.739Z,32.98
2022-09-27T13:52:52.371Z,29.65
2022-09-27T13:55:26.829Z,27.77
2022-09-27T13:58:00.036Z,27.98
2022-09-27T14:00:35.480Z,27.15
2022-09-27T14:03:08.377Z,27.00
2022-09-27T14:05:42.618Z,26.05
2022-09-27T14:08:18.894Z,26.87
2022-09-27T14:10:49.609Z,25.45
2022-09-27T14:13:24.750Z,27.42
2022-09-27T14:16:01.762Z,26.97
2022-09-27T14:18:39.911Z,26.70
2022-09-27T14:24:14.275Z,27.85
2022-09-27T14:26:46.271Z,27.58
2022-09-27T14:29:19.489Z,29.07
2022-09-27T14:31:51.789Z,29.20
2022-09-27T14:34:22.525Z,29.45
2022-09-27T14:37:05.319Z,28.87
2022-09-27T14:39:38.879Z,27.85
2022-09-27T14:42:12.133Z,30.10
2022-09-27T14:44:48.490Z,29.40
2022-09-27T14:47:20.076Z,28.75
2022-09-27T14:49:56.295Z,30.62
2022-09-27T14:52:37.713Z,31.25
2022-09-27T14:55:12.178Z,29.40
2022-09-27T14:57:45.784Z,30.52
2022-09-27T15:00:19.526Z,31.37
2022-09-27T15:02:53.897Z,32.90
2022-09-27T15:05:27.111Z,32.05
2022-09-27T15:08:00.795Z,32.05
2022-09-27T15:10:34.550Z,31.00
2022-09-27T15:13:08.140Z,30.92
2022-09-27T15:15:40.928Z,31.73
2022-09-27T15:18:14.046Z,31.27
2022-09-27T15:20:49.498Z,31.60
2022-09-27T15:23:21.760Z,31.35
2022-09-27T15:25:54.804Z,31.17
2022-09-27T15:28:27.134Z,31.37
2022-09-27T15:31:00.033Z,29.40
2022-09-27T15:33:33.772Z,30.30
2022-09-27T15:36:07.247Z,30.20
2022-09-27T15:38:44.759Z,30.27
2022-09-27T15:41:16.242Z,29.75
2022-09-27T15:43:49.759Z,32.00
2022-09-27T15:46:22.928Z,31.87
2022-09-27T15:48:56.106Z,30.43
2022-09-27T15:51:29.151Z,32.17
2022-09-27T15:54:02.634Z,32.23
2022-09-27T15:56:33.231Z,32.55
2022-09-27T15:59:11.264Z,33.18
2022-09-27T16:01:44.467Z,32.90
2022-09-27T16:04:19.586Z,32.95
2022-09-27T16:06:50.652Z,32.85
2022-09-27T16:09:22.983Z,32.85
2022-09-27T16:11:56.497Z,32.25
2022-09-27T16:14:28.389Z,31.65
2022-09-27T16:17:04.106Z,31.55
2022-09-27T16:19:51.553Z,33.40
2022-09-27T16:22:20.004Z,31.73
2022-09-27T16:24:51.924Z,30.97
2022-09-27T16:27:30.572Z,33.25
2022-09-27T16:30:03.066Z,32.77
2022-09-27T16:32:37.806Z,32.10
2022-09-27T16:35:12.243Z,31.80
2022-09-27T16:37:43.464Z,31.68
2022-09-27T16:40:16.363Z,29.45
2022-09-27T16:42:52.204Z,29.90
2022-09-27T16:45:22.926Z,31.40
2022-09-27T16:47:53.423Z,30.02
2022-09-27T16:50:25.749Z,29.85
2022-09-27T16:52:56.952Z,29.18
2022-09-27T16:55:29.411Z,29.30
2022-09-27T16:58:01.319Z,28.35
2022-09-27T17:00:33.480Z,28.35
2022-09-27T17:03:04.379Z,28.10
2022-09-27T17:05:38.567Z,28.10
2022-09-27T17:08:09.658Z,26.70
2022-09-27T17:10:40.486Z,28.27
2022-09-27T17:13:11.094Z,27.52
2022-09-27T17:15:43.043Z,28.00
2022-09-27T17:18:14.881Z,27.50
2022-09-27T17:20:51.354Z,26.97
2022-09-27T17:23:21.931Z,27.45
2022-09-27T17:25:53.807Z,28.65
2022-09-27T17:28:24.803Z,27.73
2022-09-27T17:30:56.788Z,27.10
2022-09-27T17:33:27.405Z,27.30
2022-09-27T17:36:01.827Z,27.13
2022-09-27T17:38:32.854Z,28.15
2022-09-27T17:41:08.421Z,28.80
2022-09-27T17:43:44.663Z,28.07
2022-09-27T17:46:16.642Z,27.67
2022-09-27T17:48:49.423Z,29.18
2022-09-27T17:51:24.846Z,27.70
2022-09-27T17:53:58.296Z,27.93
2022-09-27T17:56:32.010Z,28.73
2022-09-27T17:59:02.831Z,29.23
2022-09-27T18:01:33.588Z,30.17
2022-09-27T18:04:07.771Z,28.45
2022-09-27T18:06:40.219Z,26.05
2022-09-27T18:09:12.902Z,27.35
2022-09-27T18:11:45.264Z,26.07
2022-09-27T18:14:16.094Z,27.25
2022-09-27T18:16:46.904Z,26.37
2022-09-27T18:19:18.982Z,27.67
2022-09-27T18:21:50.926Z,28.05
2022-09-27T18:24:21.521Z,27.48
2022-09-27T18:26:52.056Z,26.82
2022-09-27T18:29:24.006Z,26.60
2022-09-27T18:31:54.636Z,26.93
2022-09-27T18:34:28.213Z,26.82
2022-09-27T18:36:58.879Z,26.15
2022-09-27T18:39:29.558Z,24.23
2022-09-27T18:42:01.430Z,25.52
2022-09-27T18:44:32.255Z,25.37
2022-09-27T18:47:02.876Z,24.77
2022-09-27T18:49:34.753Z,24.12
2022-09-27T18:52:05.462Z,25.30
2022-09-27T18:57:32.845Z,24.40
2022-09-27T19:00:05.418Z,23.60
2022-09-27T19:02:36.043Z,24.20
2022-09-27T19:05:07.072Z,23.65
2022-09-27T19:07:38.077Z,24.00
2022-09-27T19:10:09.025Z,25.15
2022-09-27T19:12:44.042Z,22.95
2022-09-27T19:15:14.670Z,24.23
2022-09-27T19:17:45.500Z,24.32
2022-09-27T19:20:16.256Z,23.87
2022-09-27T19:22:46.886Z,23.92
2022-09-27T19:25:17.704Z,24.37
2022-09-27T19:27:48.519Z,23.45
2022-09-27T19:30:19.834Z,24.75
2022-09-27T19:32:51.954Z,24.82
2022-09-27T19:35:22.679Z,22.75
2022-09-27T19:37:53.821Z,23.67
2022-09-27T19:40:25.800Z,23.12
2022-09-27T19:42:56.927Z,25.10
2022-09-27T19:45:27.637Z,23.35
2022-09-27T19:47:58.184Z,23.07
2022-09-27T19:50:29.023Z,23.00
2022-09-27T19:52:59.755Z,22.22
2022-09-27T19:55:30.388Z,22.62
2022-09-27T19:58:00.855Z,20.77
2022-09-27T20:00:31.585Z,21.57
2022-09-27T20:03:02.211Z,21.20
2022-09-27T20:05:32.795Z,20.97
2022-09-27T20:08:03.593Z,21.12
2022-09-27T20:10:34.115Z,19.80
2022-09-27T20:13:05.024Z,19.75
2022-09-27T20:15:35.644Z,18.50
2022-09-27T20:18:09.226Z,19.35
2022-09-27T20:20:39.569Z,18.05
2022-09-27T20:23:10.765Z,17.35
2022-09-27T20:25:43.216Z,18.17
2022-09-27T20:28:13.364Z,18.92
2022-09-27T20:30:44.219Z,18.30
2022-09-27T20:33:16.122Z,17.62
2022-09-27T20:35:49.142Z,18.02
2022-09-27T20:38:19.951Z,17.82
2022-09-27T20:40:53.036Z,16.97
2022-09-27T20:43:23.997Z,17.85
2022-09-27T20:45:54.682Z,17.52
2022-09-27T20:48:25.407Z,18.10
2022-09-27T20:51:02.418Z,17.25
2022-09-27T20:53:31.556Z,16.77
2022-09-27T20:56:04.701Z,17.30
2022-09-27T20:58:35.772Z,18.52
2022-09-27T21:01:08.503Z,18.00
2022-09-27T21:03:39.161Z,17.37
2022-09-27T21:06:29.243Z,17.30
2022-09-27T21:09:00.753Z,16.35
2022-09-27T21:11:31.238Z,16.23
2022-09-27T21:14:02.369Z,16.15
2022-09-27T21:16:35.558Z,17.65
2022-09-27T21:19:06.715Z,17.35
2022-09-27T21:21:37.534Z,17.50
2022-09-27T21:24:08.219Z,17.20
2022-09-27T21:26:39.028Z,17.85
2022-09-27T21:29:12.719Z,16.80
2022-09-27T21:31:44.024Z,17.77
2022-09-27T21:34:14.542Z,18.20
2022-09-27T21:36:45.220Z,17.10
2022-09-27T21:39:17.028Z,18.12
2022-09-27T21:41:47.664Z,17.70
2022-09-27T21:44:18.375Z,18.05
2022-09-27T21:46:49.181Z,18.15
2022-09-27T21:49:20.232Z,17.73
2022-09-27T21:51:50.881Z,18.15
2022-09-27T21:54:21.576Z,16.77
2022-09-27T21:56:52.161Z,18.10
2022-09-27T21:59:22.854Z,16.17
2022-09-27T22:01:53.619Z,17.73
2022-09-27T22:04:24.291Z,18.50
2022-09-27T22:06:55.605Z,17.52
2022-09-27T22:09:26.192Z,18.23
2022-09-27T22:11:57.908Z,18.55
2022-09-27T22:14:28.514Z,18.20
2022-09-27T22:16:59.153Z,18.05
2022-09-27T22:19:29.962Z,18.90
2022-09-27T22:22:00.672Z,18.02
2022-09-27T22:24:31.503Z,18.62
2022-09-27T22:27:02.220Z,18.55
2022-09-27T22:29:33.447Z,18.75
2022-09-27T22:32:04.162Z,18.70
2022-09-27T22:34:34.894Z,18.70
2022-09-27T22:37:05.520Z,19.70
2022-09-27T22:39:36.048Z,19.75
2022-09-27T22:42:06.745Z,20.65
2022-09-27T22:44:37.787Z,20.82
2022-09-27T22:47:08.735Z,20.00
2022-09-27T22:49:39.451Z,19.70
2022-09-27T22:52:12.695Z,18.73
2022-09-27T22:54:43.544Z,20.52
2022-09-27T22:57:14.925Z,20.48
2022-09-27T22:59:46.231Z,20.48
2022-09-27T23:02:18.115Z,19.87
2022-09-27T23:04:50.119Z,19.95
2022-09-27T23:07:21.026Z,20.20
2022-09-27T23:09:51.852Z,20.15
2022-09-27T23:12:23.166Z,19.40
2022-09-27T23:14:53.712Z,19.60
2022-09-27T23:17:24.427Z,20.17
2022-09-27T23:19:54.955Z,19.48
2022-09-27T23:22:25.992Z,20.15
2022-09-27T23:24:56.894Z,20.88
2022-09-27T23:27:28.771Z,21.00
2022-09-27T23:29:59.385Z,19.20
2022-09-27T23:32:31.781Z,19.62
2022-09-27T23:35:01.734Z,20.95
2022-09-27T23:37:32.555Z,20.45
2022-09-27T23:40:03.187Z,19.45
2022-09-27T23:42:34.104Z,19.42
2022-09-27T23:45:04.678Z,20.75
2022-09-27T23:47:35.311Z,20.72
2022-09-27T23:50:06.122Z,20.68
2022-09-27T23:52:36.630Z,20.72
2022-09-27T23:55:07.735Z,19.55
2022-09-27T23:57:38.234Z,20.35
